Time;durP1;ratioP1;P1;durP2;ratioP2;P2;SDS_P1;SDS_P2;PMS_P1;PMS_P2;Temp;Humidity;BMP_temperature;BMP_pressure;BME280_temperature;BME280_humidity;BME280_pressure;Samples;Min_cycle;Max_cycle;Signal;HPM_P1;HPM_P2
2022/03/06 00:01:22;;;;;;;;;;;;;;;3.58;45.65;101155.88;4969134;28;6817;-70
2022/03/06 00:03:47;;;;;;;;;;;;;;;3.57;45.01;101149.91;4987626;28;6791;-70
2022/03/06 00:06:14;;;;;;;;;;;;;;;3.57;45.60;101152.44;4986953;28;6796;-70
2022/03/06 00:08:41;;;;;;;;;;;;;;;3.59;45.27;101157.66;4968938;28;6952;-70
2022/03/06 00:11:08;;;;;;;;;;;;;;;3.61;44.77;101156.16;4966054;28;7078;-70
2022/03/06 00:13:35;;;;;;;;;;;;;;;3.65;45.62;101154.78;4993445;28;6839;-70
2022/03/06 00:16:01;;;;;;;;;;;;;;;3.68;45.73;101157.56;4969964;28;6818;-70
2022/03/06 00:18:26;;;;;;;;;;;;;;;3.70;45.47;101156.97;4970088;28;6975;-70
2022/03/06 00:20:53;;;;;;;;;;;;;;;3.74;45.07;101150.50;4967980;28;7112;-71
2022/03/06 00:23:19;;;;;;;;;;;;;;;3.77;44.88;101154.94;4983822;28;7848;-70
2022/03/06 00:25:45;;;;;;;;;;;;;;;3.79;45.10;101150.91;4986402;28;6929;-71
2022/03/06 00:28:11;;;;;;;;;;;;;;;3.79;45.63;101151.78;4970937;28;6859;-71
2022/03/06 00:30:37;;;;;;;;;;;;;;;3.80;44.65;101152.69;4969276;28;6880;-70
2022/03/06 00:33:05;;;;;;;;;;;;;;;3.80;44.51;101152.69;4986784;28;6811;-70
2022/03/06 00:35:32;;;;;;;;;;;;;;;3.78;45.17;101154.22;4969690;28;7051;-70
2022/03/06 00:37:58;;;;;;;;;;;;;;;3.76;45.34;101159.13;4950492;28;6803;-70
2022/03/06 00:40:25;;;;;;;;;;;;;;;3.72;44.92;101154.56;4985083;28;6784;-70
2022/03/06 00:42:52;;;;;;;;;;;;;;;3.68;45.10;101155.94;4986600;28;6804;-70
2022/03/06 00:45:17;;;;;;;;;;;;;;;3.64;45.43;101156.41;4973755;28;7073;-70
2022/03/06 00:47:43;;;;;;;;;;;;;;;3.61;45.70;101151.06;4988419;28;6788;-70
2022/03/06 00:50:10;;;;;;;;;;;;;;;3.59;44.84;101162.72;4969367;28;6795;-70
2022/03/06 00:52:39;;;;;;;;;;;;;;;3.55;45.78;101160.66;4969155;28;7833;-70
2022/03/06 00:55:05;;;;;;;;;;;;;;;3.51;46.15;101161.16;4984296;28;7787;-70
2022/03/06 00:57:30;;;;;;;;;;;;;;;3.46;46.12;101166.69;4949674;28;6971;-70
2022/03/06 00:59:56;;;;;;;;;;;;;;;3.43;45.40;101160.50;4985789;28;6862;-70
2022/03/06 01:02:22;;;;;;;;;;;;;;;3.39;46.00;101158.41;4988256;28;6788;-70
2022/03/06 01:04:48;;;;;;;;;;;;;;;3.36;46.30;101158.16;4964195;28;6776;-70
2022/03/06 01:07:13;;;;;;;;;;;;;;;3.32;45.99;101154.47;4988274;28;7219;-70
2022/03/06 01:09:39;;;;;;;;;;;;;;;3.30;46.34;101153.44;4967816;28;6815;-70
2022/03/06 01:12:05;;;;;;;;;;;;;;;3.29;46.59;101154.19;4986312;28;7018;-70
2022/03/06 01:14:31;;;;;;;;;;;;;;;3.26;46.23;101157.34;4966140;28;6920;-70
2022/03/06 01:16:57;;;;;;;;;;;;;;;3.23;46.86;101156.16;4955421;28;6780;-70
2022/03/06 01:19:22;;;;;;;;;;;;;;;3.21;46.90;101157.69;4969939;28;7513;-70
2022/03/06 01:21:48;;;;;;;;;;;;;;;3.17;46.37;101161.56;4970744;28;7272;-71
2022/03/06 01:24:14;;;;;;;;;;;;;;;3.14;46.92;101156.22;4973540;28;6864;-70
2022/03/06 01:26:39;;;;;;;;;;;;;;;3.14;47.07;101166.34;4955089;28;6971;-70
2022/03/06 01:29:05;;;;;;;;;;;;;;;3.12;47.37;101161.16;4994049;28;6824;-70
2022/03/06 01:31:31;;;;;;;;;;;;;;;3.11;46.87;101166.97;4960073;28;6871;-70
2022/03/06 01:33:57;;;;;;;;;;;;;;;3.08;47.11;101170.88;4978640;28;7252;-70
2022/03/06 01:36:23;;;;;;;;;;;;;;;3.06;46.93;101168.19;4973293;28;7273;-70
2022/03/06 01:38:49;;;;;;;;;;;;;;;3.03;46.92;101167.94;4989497;28;6795;-70
2022/03/06 01:41:16;;;;;;;;;;;;;;;3.03;47.23;101173.88;4990672;28;7402;-70
2022/03/06 01:43:41;;;;;;;;;;;;;;;3.01;46.80;101170.31;4994305;28;6976;-70
2022/03/06 01:46:07;;;;;;;;;;;;;;;3.00;47.41;101177.78;4970061;28;6792;-70
2022/03/06 01:48:33;;;;;;;;;;;;;;;2.98;47.21;101174.19;4976984;28;8055;-70
2022/03/06 01:50:58;;;;;;;;;;;;;;;3.00;47.48;101172.72;4990713;28;6788;-70
2022/03/06 01:53:24;;;;;;;;;;;;;;;2.99;47.68;101171.81;4979485;28;7261;-70
2022/03/06 01:55:49;;;;;;;;;;;;;;;3.01;47.16;101171.97;4970731;28;6851;-70
2022/03/06 01:58:15;;;;;;;;;;;;;;;2.99;47.74;101174.34;4981202;28;8063;-71
2022/03/06 02:00:48;;;;;;;;;;;;;;;2.98;47.53;101172.56;4991397;28;6788;-70
2022/03/06 02:03:14;;;;;;;;;;;;;;;2.97;47.23;101172.44;4990637;28;7904;-70
2022/03/06 02:05:42;;;;;;;;;;;;;;;2.92;46.72;101175.44;4992916;28;6849;-70
2022/03/06 02:08:08;;;;;;;;;;;;;;;2.89;46.85;101175.13;4954869;28;8014;-70
2022/03/06 02:10:35;;;;;;;;;;;;;;;2.85;46.80;101178.16;4989918;28;7373;-70
2022/03/06 02:13:01;;;;;;;;;;;;;;;2.82;46.65;101180.41;4994765;28;7868;-70
2022/03/06 02:15:26;;;;;;;;;;;;;;;2.80;47.54;101183.56;4995525;28;6796;-70
2022/03/06 02:17:52;;;;;;;;;;;;;;;2.76;46.93;101182.38;4992438;28;6995;-70
2022/03/06 02:20:22;;;;;;;;;;;;;;;2.72;46.86;101190.44;4991458;28;7094;-70
2022/03/06 02:22:53;;;;;;;;;;;;;;;2.68;47.35;101184.22;4992530;28;6807;-70
2022/03/06 02:25:22;;;;;;;;;;;;;;;2.64;46.87;101190.63;4974994;28;7199;-70
2022/03/06 02:27:51;;;;;;;;;;;;;;;2.61;47.13;101192.88;4993538;28;6808;-70
2022/03/06 02:30:31;;;;;;;;;;;;;;;2.58;46.75;101196.78;4971846;28;7788;-70
2022/03/06 02:33:02;;;;;;;;;;;;;;;2.54;47.68;101192.16;4988402;28;7060;-70
2022/03/06 02:35:28;;;;;;;;;;;;;;;2.53;47.08;101191.28;4971544;28;6811;-70
2022/03/06 02:37:54;;;;;;;;;;;;;;;2.51;47.76;101195.28;4990389;28;6792;-70
2022/03/06 02:40:22;;;;;;;;;;;;;;;2.48;47.19;101187.41;4981032;28;7297;-70
2022/03/06 02:42:50;;;;;;;;;;;;;;;2.44;47.00;101198.88;4994092;28;7948;-70
2022/03/06 02:45:17;;;;;;;;;;;;;;;2.41;47.60;101196.06;4971632;28;7829;-70
2022/03/06 02:47:45;;;;;;;;;;;;;;;2.40;47.08;101193.41;4991776;28;6804;-70
2022/03/06 02:50:15;;;;;;;;;;;;;;;2.40;47.50;101198.47;4968876;28;7066;-70
2022/03/06 02:52:42;;;;;;;;;;;;;;;2.38;47.67;101202.50;4992014;28;6904;-70
2022/03/06 02:55:10;;;;;;;;;;;;;;;2.34;47.25;101199.69;4975387;28;6820;-70
2022/03/06 02:57:36;;;;;;;;;;;;;;;2.32;47.81;101198.66;4979561;28;7238;-70
2022/03/06 03:00:10;;;;;;;;;;;;;;;2.29;48.01;101198.34;4993749;28;7359;-70
2022/03/06 03:02:37;;;;;;;;;;;;;;;2.29;47.69;101200.88;4972750;28;7893;-70
2022/03/06 03:05:05;;;;;;;;;;;;;;;2.27;47.98;101197.31;4972863;28;6892;-70
2022/03/06 03:07:33;;;;;;;;;;;;;;;2.25;47.92;101196.28;4989457;28;7304;-70
2022/03/06 03:09:59;;;;;;;;;;;;;;;2.24;48.00;101191.97;4990282;28;7928;-70
2022/03/06 03:12:25;;;;;;;;;;;;;;;2.22;48.31;101195.97;4955646;28;7237;-70
2022/03/06 03:14:51;;;;;;;;;;;;;;;2.21;48.72;101204.31;4970425;28;6895;-70
2022/03/06 03:17:16;;;;;;;;;;;;;;;2.21;48.11;101194.19;4969991;28;6785;-70
2022/03/06 03:19:42;;;;;;;;;;;;;;;2.21;48.91;101204.31;4992891;28;6906;-70
2022/03/06 03:22:08;;;;;;;;;;;;;;;2.19;47.96;101208.34;4990891;28;7233;-70
2022/03/06 03:24:33;;;;;;;;;;;;;;;2.17;48.32;101208.22;4981351;28;6780;-70
2022/03/06 03:26:59;;;;;;;;;;;;;;;2.14;48.13;101202.84;4989558;28;7360;-70
2022/03/06 03:29:25;;;;;;;;;;;;;;;2.08;48.32;101202.28;4987665;28;6796;-70
2022/03/06 03:31:50;;;;;;;;;;;;;;;2.05;48.47;101207.94;4989591;28;6787;-70
2022/03/06 03:34:16;;;;;;;;;;;;;;;2.01;48.91;101210.91;4971462;28;6870;-70
2022/03/06 03:36:43;;;;;;;;;;;;;;;2.02;48.59;101215.22;4957113;28;7864;-71
2022/03/06 03:39:09;;;;;;;;;;;;;;;2.02;48.75;101214.34;4974921;28;6891;-71
2022/03/06 03:41:35;;;;;;;;;;;;;;;2.04;48.50;101220.44;4991794;28;6893;-71
2022/03/06 03:44:02;;;;;;;;;;;;;;;2.03;48.61;101209.44;4972763;28;7597;-71
2022/03/06 03:46:28;;;;;;;;;;;;;;;2.05;49.00;101222.22;4971715;28;6987;-71
2022/03/06 03:48:54;;;;;;;;;;;;;;;2.06;49.30;101217.31;4973537;28;6803;-71
2022/03/06 03:51:20;;;;;;;;;;;;;;;2.06;48.55;101223.97;4969428;28;7327;-72
2022/03/06 03:53:45;;;;;;;;;;;;;;;2.05;48.48;101217.16;4972390;28;7208;-72
2022/03/06 03:56:11;;;;;;;;;;;;;;;2.06;48.65;101223.97;4989876;28;7032;-72
2022/03/06 03:58:37;;;;;;;;;;;;;;;2.06;48.87;101219.84;4974067;28;6914;-71
2022/03/06 04:01:03;;;;;;;;;;;;;;;2.12;49.43;101221.16;4968728;28;8285;-71
2022/03/06 04:03:28;;;;;;;;;;;;;;;2.16;49.58;101226.63;4966889;28;7449;-72
2022/03/06 04:05:54;;;;;;;;;;;;;;;2.20;49.63;101222.78;4986586;28;6796;-72
2022/03/06 04:08:20;;;;;;;;;;;;;;;2.25;49.12;101229.16;4989112;28;6787;-71
2022/03/06 04:10:46;;;;;;;;;;;;;;;2.31;49.82;101228.84;4964995;28;7217;-71
2022/03/06 04:13:11;;;;;;;;;;;;;;;2.36;49.08;101238.66;4991894;28;7253;-71
2022/03/06 04:15:37;;;;;;;;;;;;;;;2.40;49.42;101227.19;4974278;28;7042;-71
2022/03/06 04:18:04;;;;;;;;;;;;;;;2.47;49.08;101233.72;4978245;28;6947;-71
2022/03/06 04:20:30;;;;;;;;;;;;;;;2.53;49.17;101234.31;4957087;28;7320;-71
2022/03/06 04:22:57;;;;;;;;;;;;;;;2.59;49.04;101234.84;4946261;28;7486;-71
2022/03/06 04:25:24;;;;;;;;;;;;;;;2.64;49.44;101237.81;4992450;28;6990;-71
2022/03/06 04:27:49;;;;;;;;;;;;;;;2.67;49.28;101235.59;4970181;28;6890;-71
2022/03/06 04:30:15;;;;;;;;;;;;;;;2.70;49.51;101242.56;4967283;28;7284;-71
2022/03/06 04:32:41;;;;;;;;;;;;;;;2.73;49.02;101237.81;4988624;28;6918;-71
2022/03/06 04:35:07;;;;;;;;;;;;;;;2.74;48.80;101240.44;4969047;28;7224;-71
2022/03/06 04:37:34;;;;;;;;;;;;;;;2.77;48.74;101234.78;4968253;28;7871;-71
2022/03/06 04:40:00;;;;;;;;;;;;;;;2.80;48.95;101244.31;4979335;28;7007;-71
2022/03/06 04:42:25;;;;;;;;;;;;;;;2.81;48.69;101247.00;4968828;28;6981;-71
2022/03/06 04:44:51;;;;;;;;;;;;;;;2.80;49.14;101244.31;4987509;28;7232;-71
2022/03/06 04:47:17;;;;;;;;;;;;;;;2.79;48.80;101243.41;4969891;28;6911;-71
2022/03/06 04:49:42;;;;;;;;;;;;;;;2.76;49.43;101249.09;4948005;28;7833;-71
2022/03/06 04:52:08;;;;;;;;;;;;;;;2.73;48.66;101246.28;4990111;28;6784;-71
2022/03/06 04:54:34;;;;;;;;;;;;;;;2.69;48.88;101250.91;4988099;28;7124;-71
2022/03/06 04:57:00;;;;;;;;;;;;;;;2.66;49.06;101253.16;4971227;28;7236;-71
2022/03/06 04:59:27;;;;;;;;;;;;;;;2.61;48.84;101255.25;4983700;28;6816;-71
2022/03/06 05:01:54;;;;;;;;;;;;;;;2.55;48.90;101255.59;4949907;28;9702;-71
2022/03/06 05:04:20;;;;;;;;;;;;;;;2.53;48.91;101264.69;4970999;28;6796;-71
2022/03/06 05:06:45;;;;;;;;;;;;;;;2.48;49.12;101268.41;4988471;28;7200;-71
2022/03/06 05:09:11;;;;;;;;;;;;;;;2.44;48.39;101268.88;4987283;28;7869;-71
2022/03/06 05:11:37;;;;;;;;;;;;;;;2.40;48.92;101262.63;4967649;28;7822;-71
2022/03/06 05:14:03;;;;;;;;;;;;;;;2.37;48.53;101269.94;4984583;28;6977;-71
2022/03/06 05:16:29;;;;;;;;;;;;;;;2.33;49.09;101267.84;4962467;28;8080;-72
2022/03/06 05:18:56;;;;;;;;;;;;;;;2.29;48.68;101264.13;4955837;28;6860;-72
2022/03/06 05:21:22;;;;;;;;;;;;;;;2.28;49.00;101277.53;4976203;28;7232;-71
2022/03/06 05:23:48;;;;;;;;;;;;;;;2.26;48.80;101262.94;4967220;28;6880;-72
2022/03/06 05:26:13;;;;;;;;;;;;;;;2.27;49.11;101273.22;4951645;28;6792;-72
2022/03/06 05:28:41;;;;;;;;;;;;;;;2.26;48.85;101273.97;4985469;28;7163;-71
2022/03/06 05:31:08;;;;;;;;;;;;;;;2.26;49.21;101273.97;4988725;28;7043;-71
2022/03/06 05:33:34;;;;;;;;;;;;;;;2.26;49.10;101276.50;4975303;28;6815;-71
2022/03/06 05:36:00;;;;;;;;;;;;;;;2.24;48.72;101275.47;4984774;28;7236;-71
2022/03/06 05:38:26;;;;;;;;;;;;;;;2.21;49.06;101276.03;4972253;28;6808;-71
2022/03/06 05:40:52;;;;;;;;;;;;;;;2.20;48.41;101273.38;4969388;28;6798;-71
2022/03/06 05:43:17;;;;;;;;;;;;;;;2.18;49.39;101279.91;4968834;28;6959;-71
2022/03/06 05:45:44;;;;;;;;;;;;;;;2.18;49.17;101284.97;4968069;28;6792;-71
2022/03/06 05:48:11;;;;;;;;;;;;;;;2.18;49.41;101290.03;4990623;28;7054;-71
2022/03/06 05:50:37;;;;;;;;;;;;;;;2.18;49.05;101287.50;4967658;28;6996;-72
2022/03/06 05:53:03;;;;;;;;;;;;;;;2.17;49.19;101285.72;4965440;28;7237;-71
2022/03/06 05:55:30;;;;;;;;;;;;;;;2.18;49.41;101290.03;4984615;28;6807;-71
2022/03/06 05:57:56;;;;;;;;;;;;;;;2.18;49.54;101295.09;4970631;28;7279;-71
2022/03/06 06:00:22;;;;;;;;;;;;;;;2.21;49.16;101301.34;4958339;28;7110;-71
2022/03/06 06:02:48;;;;;;;;;;;;;;;2.24;49.64;101305.81;4989981;28;6906;-71
2022/03/06 06:05:17;;;;;;;;;;;;;;;2.26;49.36;101306.84;4988368;28;6795;-71
2022/03/06 06:07:43;;;;;;;;;;;;;;;2.28;49.35;101304.47;4970328;28;7180;-71
2022/03/06 06:10:09;;;;;;;;;;;;;;;2.30;49.38;101313.97;4989075;28;7585;-72
2022/03/06 06:12:35;;;;;;;;;;;;;;;2.32;48.87;101317.56;4991923;28;6800;-72
2022/03/06 06:15:01;;;;;;;;;;;;;;;2.31;49.06;101317.41;4968230;28;7007;-71
2022/03/06 06:17:27;;;;;;;;;;;;;;;2.29;49.60;101322.31;4985437;28;8089;-71
2022/03/06 06:19:52;;;;;;;;;;;;;;;2.27;49.03;101321.28;4989622;28;6804;-71
2022/03/06 06:22:18;;;;;;;;;;;;;;;2.24;49.08;101321.00;4979689;28;7208;-71
2022/03/06 06:24:43;;;;;;;;;;;;;;;2.21;49.75;101329.16;4986354;28;6799;-71
2022/03/06 06:27:09;;;;;;;;;;;;;;;2.20;49.36;101323.94;4971584;28;6788;-71
2022/03/06 06:29:35;;;;;;;;;;;;;;;2.17;49.64;101333.78;4967227;28;7253;-71
2022/03/06 06:32:00;;;;;;;;;;;;;;;2.14;49.55;101334.38;4990892;28;7019;-71
2022/03/06 06:34:26;;;;;;;;;;;;;;;2.11;49.49;101338.25;4991402;28;7829;-71
2022/03/06 06:36:57;;;;;;;;;;;;;;;2.10;50.13;101337.38;4988369;28;7044;-71
2022/03/06 06:39:25;;;;;;;;;;;;;;;2.10;49.97;101339.00;4937278;28;7296;-71
2022/03/06 06:41:51;;;;;;;;;;;;;;;2.09;50.22;101343.16;4971556;28;7256;-71
2022/03/06 06:44:17;;;;;;;;;;;;;;;2.10;50.19;101354.16;4978502;28;6990;-72
2022/03/06 06:46:43;;;;;;;;;;;;;;;2.11;49.88;101350.88;4946718;28;7365;-72
2022/03/06 06:49:10;;;;;;;;;;;;;;;2.13;50.08;101346.91;4988191;28;6819;-71
2022/03/06 06:51:38;;;;;;;;;;;;;;;2.13;49.80;101354.47;4968528;28;6837;-71
2022/03/06 06:54:04;;;;;;;;;;;;;;;2.13;50.38;101359.53;4972616;28;6836;-71
2022/03/06 06:56:30;;;;;;;;;;;;;;;2.15;50.46;101360.56;4989764;28;7294;-71
2022/03/06 06:58:56;;;;;;;;;;;;;;;2.18;50.45;101370.97;4988075;28;7164;-71
2022/03/06 07:01:22;;;;;;;;;;;;;;;2.24;50.57;101375.75;4972622;28;6770;-71
2022/03/06 07:03:48;;;;;;;;;;;;;;;2.29;50.38;101390.63;4987875;28;6813;-71
2022/03/06 07:06:14;;;;;;;;;;;;;;;2.35;51.03;101393.75;4991700;28;6815;-71
2022/03/06 07:08:40;;;;;;;;;;;;;;;2.39;50.51;101386.44;4986669;28;7199;-71
2022/03/06 07:11:06;;;;;;;;;;;;;;;2.43;51.08;101384.38;4964992;28;7064;-71
2022/03/06 07:13:32;;;;;;;;;;;;;;;2.55;50.62;101397.31;4968963;28;6926;-71
2022/03/06 07:15:58;;;;;;;;;;;;;;;2.67;51.45;101391.66;4967267;28;7443;-72
2022/03/06 07:18:23;;;;;;;;;;;;;;;2.81;50.91;101398.03;4986893;28;7872;-71
2022/03/06 07:20:49;;;;;;;;;;;;;;;2.94;50.71;101395.91;4970202;28;6871;-72
2022/03/06 07:23:15;;;;;;;;;;;;;;;3.06;51.18;101396.16;4967988;28;7522;-71
2022/03/06 07:25:41;;;;;;;;;;;;;;;3.21;50.49;101401.78;4974815;28;6989;-71
2022/03/06 07:28:07;;;;;;;;;;;;;;;3.31;50.19;101396.81;4989387;28;6828;-71
2022/03/06 07:30:34;;;;;;;;;;;;;;;3.38;50.63;101405.91;4969865;28;6803;-71
2022/03/06 07:33:00;;;;;;;;;;;;;;;3.45;49.93;101405.72;4952358;28;7264;-71
2022/03/06 07:35:28;;;;;;;;;;;;;;;3.52;50.19;101411.38;4971841;28;7230;-71
2022/03/06 07:37:54;;;;;;;;;;;;;;;3.58;49.41;101406.88;4989806;28;7315;-72
2022/03/06 07:40:22;;;;;;;;;;;;;;;3.66;49.34;101410.97;4957388;28;7030;-71
2022/03/06 07:42:49;;;;;;;;;;;;;;;3.73;49.92;101415.88;4979973;28;7186;-71
2022/03/06 07:45:15;;;;;;;;;;;;;;;3.82;49.30;101414.94;4954960;28;7023;-71
2022/03/06 07:47:41;;;;;;;;;;;;;;;3.91;49.85;101413.22;4969282;28;7325;-71
2022/03/06 07:50:11;;;;;;;;;;;;;;;4.03;49.15;101424.50;4948752;28;7256;-71
2022/03/06 07:52:38;;;;;;;;;;;;;;;4.14;49.17;101424.56;4968892;28;6903;-71
2022/03/06 07:55:06;;;;;;;;;;;;;;;4.24;49.96;101422.09;4967765;28;7047;-72
2022/03/06 07:57:32;;;;;;;;;;;;;;;4.35;49.24;101414.59;4984996;28;6896;-71
2022/03/06 07:59:57;;;;;;;;;;;;;;;4.43;49.20;101416.13;4969883;28;7304;-71
2022/03/06 08:02:23;;;;;;;;;;;;;;;4.49;48.66;101420.84;4965289;28;6780;-71
2022/03/06 08:04:48;;;;;;;;;;;;;;;4.53;49.42;101425.47;4968538;28;7343;-71
2022/03/06 08:07:14;;;;;;;;;;;;;;;4.54;49.49;101430.69;4987803;28;6978;-72
2022/03/06 08:09:40;;;;;;;;;;;;;;;4.57;49.17;101425.88;4967092;28;7213;-71
2022/03/06 08:12:06;;;;;;;;;;;;;;;4.62;49.31;101431.38;4968697;28;6863;-71
2022/03/06 08:14:32;;;;;;;;;;;;;;;4.67;49.69;101424.16;4987073;28;7336;-71
2022/03/06 08:16:58;;;;;;;;;;;;;;;4.71;48.68;101426.19;4969848;28;6808;-72
2022/03/06 08:19:23;;;;;;;;;;;;;;;4.73;48.87;101424.69;4966887;28;6862;-71
2022/03/06 08:21:49;;;;;;;;;;;;;;;4.78;48.68;101437.78;4967794;28;10018;-71
2022/03/06 08:24:16;;;;;;;;;;;;;;;4.87;48.62;101441.13;4986496;28;6847;-72
2022/03/06 08:26:43;;;;;;;;;;;;;;;4.98;49.38;101444.63;4968118;28;6808;-71
2022/03/06 08:29:09;;;;;;;;;;;;;;;5.10;49.11;101440.59;4967945;28;6892;-71
2022/03/06 08:31:35;;;;;;;;;;;;;;;5.24;49.34;101443.47;4979795;28;6823;-71
2022/03/06 08:34:01;;;;;;;;;;;;;;;5.37;48.82;101443.75;4958301;28;6996;-71
2022/03/06 08:36:26;;;;;;;;;;;;;;;5.52;49.15;101440.75;4969782;28;6966;-71
2022/03/06 08:38:52;;;;;;;;;;;;;;;5.67;48.51;101436.94;4986379;28;6796;-71
2022/03/06 08:41:18;;;;;;;;;;;;;;;5.81;48.72;101437.22;4962208;28;6949;-71
2022/03/06 08:43:44;;;;;;;;;;;;;;;5.98;48.02;101444.59;4966871;28;7924;-71
2022/03/06 08:46:10;;;;;;;;;;;;;;;6.12;48.03;101452.53;4982681;28;6951;-71
2022/03/06 08:48:37;;;;;;;;;;;;;;;6.25;48.03;101457.00;4986807;28;7275;-71
2022/03/06 08:51:06;;;;;;;;;;;;;;;6.40;47.93;101452.25;4964094;28;7403;-72
2022/03/06 08:53:33;;;;;;;;;;;;;;;6.56;47.66;101451.84;4983574;28;6999;-72
2022/03/06 08:55:59;;;;;;;;;;;;;;;6.74;47.48;101449.00;4979459;28;7184;-72
2022/03/06 08:58:26;;;;;;;;;;;;;;;6.91;47.54;101446.16;4980885;28;7043;-72
2022/03/06 09:00:52;;;;;;;;;;;;;;;7.06;46.83;101448.13;4964682;28;7059;-72
2022/03/06 09:03:18;;;;;;;;;;;;;;;7.20;46.95;101452.66;4939727;28;7386;-71
2022/03/06 09:05:44;;;;;;;;;;;;;;;7.33;47.19;101453.63;4982095;28;8572;-71
2022/03/06 09:08:11;;;;;;;;;;;;;;;7.43;46.55;101448.47;4982621;28;7134;-71
2022/03/06 09:10:39;;;;;;;;;;;;;;;7.51;46.07;101443.94;4985384;28;6812;-71
2022/03/06 09:13:07;;;;;;;;;;;;;;;7.58;46.48;101445.28;4983701;28;6835;-71
2022/03/06 09:15:35;;;;;;;;;;;;;;;7.62;46.33;101452.44;4983677;28;6812;-71
2022/03/06 09:18:01;;;;;;;;;;;;;;;7.59;45.78;101445.44;4949951;28;7304;-71
2022/03/06 09:20:27;;;;;;;;;;;;;;;7.59;45.69;101453.06;4963145;28;6792;-71
2022/03/06 09:22:53;;;;;;;;;;;;;;;7.64;45.24;101461.09;4968954;28;6847;-71
2022/03/06 09:25:19;;;;;;;;;;;;;;;7.67;45.61;101456.22;4985997;28;7018;-72
2022/03/06 09:27:45;;;;;;;;;;;;;;;7.76;45.94;101456.03;4969160;28;6871;-71
2022/03/06 09:30:11;;;;;;;;;;;;;;;7.89;45.08;101458.75;4974009;28;7050;-71
2022/03/06 09:32:38;;;;;;;;;;;;;;;8.02;44.97;101454.59;4971878;28;7873;-72
2022/03/06 09:35:05;;;;;;;;;;;;;;;8.12;44.40;101461.25;4991166;28;7184;-71
2022/03/06 09:37:30;;;;;;;;;;;;;;;8.22;44.65;101448.41;4970372;28;6902;-71
2022/03/06 09:39:56;;;;;;;;;;;;;;;8.34;43.98;101450.97;4987497;28;6919;-71
2022/03/06 09:42:22;;;;;;;;;;;;;;;8.40;43.18;101454.00;4989017;28;6944;-71
2022/03/06 09:44:49;;;;;;;;;;;;;;;8.43;43.92;101445.66;4988697;28;6895;-71
2022/03/06 09:47:16;;;;;;;;;;;;;;;8.40;43.70;101453.09;4977051;28;6808;-71
2022/03/06 09:49:44;;;;;;;;;;;;;;;8.40;42.74;101448.88;4967051;28;6890;-71
2022/03/06 09:52:11;;;;;;;;;;;;;;;8.41;43.17;101458.31;4992473;28;6831;-71
2022/03/06 09:54:37;;;;;;;;;;;;;;;8.38;42.50;101455.53;4956201;28;6990;-71
2022/03/06 09:57:04;;;;;;;;;;;;;;;8.39;42.39;101452.19;4973762;28;6871;-71
2022/03/06 09:59:31;;;;;;;;;;;;;;;8.42;43.13;101447.31;4952056;28;7057;-72
2022/03/06 10:02:07;;;;;;;;;;;;;;;8.46;42.11;101446.75;4971355;28;8370;-71
2022/03/06 10:04:34;;;;;;;;;;;;;;;8.50;42.22;101457.19;4989780;28;6812;-71
2022/03/06 10:07:05;;;;;;;;;;;;;;;8.52;42.65;101450.59;4973405;28;6816;-71
2022/03/06 10:09:33;;;;;;;;;;;;;;;8.57;42.57;101447.59;4944577;28;7284;-71
2022/03/06 10:11:59;;;;;;;;;;;;;;;8.64;42.31;101451.47;4990786;28;6978;-71
2022/03/06 10:14:40;;;;;;;;;;;;;;;8.72;42.07;101446.91;4972005;28;6816;-71
2022/03/06 10:17:15;;;;;;;;;;;;;;;8.80;42.26;101445.81;4949873;28;6970;-71
2022/03/06 10:19:48;;;;;;;;;;;;;;;8.94;43.12;101451.91;4975872;28;6812;-71
2022/03/06 10:22:14;;;;;;;;;;;;;;;9.07;41.80;101452.78;4990756;28;6823;-71
2022/03/06 10:24:52;;;;;;;;;;;;;;;9.22;42.03;101453.88;4971378;28;6883;-71
2022/03/06 10:27:46;;;;;;;;;;;;;;;9.44;41.90;101455.34;4974647;28;7220;-71
2022/03/06 10:30:27;;;;;;;;;;;;;;;9.85;42.46;101457.34;4989200;28;6828;-71
2022/03/06 10:32:55;;;;;;;;;;;;;;;10.33;41.36;101454.47;4988415;28;6819;-71
2022/03/06 10:35:45;;;;;;;;;;;;;;;11.01;40.63;101447.72;4980831;28;7915;-71
2022/03/06 10:38:18;;;;;;;;;;;;;;;11.94;39.41;101444.75;4988059;28;7050;-72
2022/03/06 10:40:44;;;;;;;;;;;;;;;12.37;38.71;101443.81;4987603;28;6876;-72
2022/03/06 10:43:31;;;;;;;;;;;;;;;12.57;38.28;101447.53;4969004;28;8048;-71
2022/03/06 10:46:19;;;;;;;;;;;;;;;12.58;37.97;101448.41;4967128;28;6824;-71
2022/03/06 10:48:57;;;;;;;;;;;;;;;12.56;38.10;101447.44;4970456;28;8482;-71
2022/03/06 10:51:25;;;;;;;;;;;;;;;12.45;37.39;101451.97;4975206;28;6904;-71
2022/03/06 10:54:00;;;;;;;;;;;;;;;12.38;37.45;101452.44;4967696;28;8101;-71
2022/03/06 10:56:27;;;;;;;;;;;;;;;12.31;37.68;101449.50;4968010;28;6808;-71
2022/03/06 10:58:55;;;;;;;;;;;;;;;12.20;36.85;101437.72;4981773;28;6796;-71
2022/03/06 11:01:22;;;;;;;;;;;;;;;12.16;37.13;101440.88;4972719;28;6908;-71
2022/03/06 11:03:50;;;;;;;;;;;;;;;12.24;37.44;101443.94;4967219;28;6954;-71
2022/03/06 11:06:19;;;;;;;;;;;;;;;12.47;37.67;101437.53;4987819;28;7007;-71
2022/03/06 11:08:45;;;;;;;;;;;;;;;13.00;37.25;101440.44;4985336;28;7064;-71
2022/03/06 11:11:12;;;;;;;;;;;;;;;13.54;36.90;101439.88;4969544;28;6876;-71
2022/03/06 11:13:39;;;;;;;;;;;;;;;13.83;36.38;101432.78;4984825;28;7565;-71
2022/03/06 11:16:05;;;;;;;;;;;;;;;14.32;36.35;101433.47;4967075;28;7881;-71
2022/03/06 11:18:32;;;;;;;;;;;;;;;14.69;35.54;101427.53;4972428;28;6784;-71
2022/03/06 11:21:03;;;;;;;;;;;;;;;14.90;34.60;101429.38;4984482;28;6788;-72
2022/03/06 11:23:46;;;;;;;;;;;;;;;14.99;35.02;101424.63;4983922;28;7940;-71
2022/03/06 11:26:15;;;;;;;;;;;;;;;15.13;34.33;101420.09;4982476;28;7189;-71
2022/03/06 11:29:00;;;;;;;;;;;;;;;15.56;34.36;101418.56;4967878;28;7608;-71
2022/03/06 11:31:42;;;;;;;;;;;;;;;16.06;33.27;101410.34;4981078;28;7374;-72
2022/03/06 11:34:11;;;;;;;;;;;;;;;16.23;32.65;101403.28;4978261;28;6836;-72
2022/03/06 11:36:48;;;;;;;;;;;;;;;16.29;31.82;101402.63;4986847;28;6820;-72
2022/03/06 11:39:38;;;;;;;;;;;;;;;16.42;31.64;101398.84;4983488;28;7134;-72
2022/03/06 11:42:09;;;;;;;;;;;;;;;16.82;31.62;101400.41;4966930;28;7282;-72
2022/03/06 11:44:41;;;;;;;;;;;;;;;17.25;31.07;101400.28;4954545;28;6800;-71
2022/03/06 11:47:32;;;;;;;;;;;;;;;17.44;30.33;101386.28;4967292;28;6820;-72
2022/03/06 11:49:59;;;;;;;;;;;;;;;17.55;30.14;101391.84;4966920;28;7076;-72
2022/03/06 11:52:28;;;;;;;;;;;;;;;17.72;30.29;101395.00;4966868;28;7102;-72
2022/03/06 11:54:55;;;;;;;;;;;;;;;17.79;30.14;101394.41;4983888;28;6875;-72
2022/03/06 11:57:43;;;;;;;;;;;;;;;17.88;29.61;101393.81;4969233;28;6960;-72
2022/03/06 12:00:20;;;;;;;;;;;;;;;17.80;29.46;101393.56;4962157;28;7256;-72
2022/03/06 12:02:50;;;;;;;;;;;;;;;17.67;29.12;101386.19;4984998;28;7285;-72
2022/03/06 12:05:17;;;;;;;;;;;;;;;17.62;28.92;101386.91;4964404;28;6881;-71
2022/03/06 12:07:46;;;;;;;;;;;;;;;17.56;28.79;101381.50;4967739;28;8451;-71
2022/03/06 12:10:15;;;;;;;;;;;;;;;17.54;28.82;101384.91;4977553;28;7351;-71
2022/03/06 12:12:42;;;;;;;;;;;;;;;17.58;28.98;101377.28;4969269;28;6985;-72
2022/03/06 12:15:25;;;;;;;;;;;;;;;17.52;28.55;101374.47;4983292;28;6970;-72
2022/03/06 12:17:50;;;;;;;;;;;;;;;17.38;28.84;101371.38;4965254;28;6832;-72
2022/03/06 12:20:25;;;;;;;;;;;;;;;17.32;28.89;101377.25;4964381;28;6780;-72
2022/03/06 12:22:55;;;;;;;;;;;;;;;17.32;29.22;101389.28;4984920;28;6840;-72
2022/03/06 12:25:29;;;;;;;;;;;;;;;17.33;28.34;101375.50;4965977;28;7621;-73
2022/03/06 12:28:01;;;;;;;;;;;;;;;17.34;28.49;101370.41;4973601;28;6984;-71
2022/03/06 12:30:29;;;;;;;;;;;;;;;17.23;28.46;101376.91;4988067;28;6796;-71
2022/03/06 12:32:54;;;;;;;;;;;;;;;17.03;28.71;101379.66;4969773;28;6808;-71
2022/03/06 12:35:25;;;;;;;;;;;;;;;16.65;28.56;101371.28;4971762;28;7018;-71
2022/03/06 12:38:00;;;;;;;;;;;;;;;15.94;28.67;101377.09;4990264;28;6836;-71
2022/03/06 12:40:31;;;;;;;;;;;;;;;15.07;29.20;101382.00;4952020;28;7873;-71
2022/03/06 12:43:07;;;;;;;;;;;;;;;14.26;29.86;101382.50;4964155;28;6913;-71
2022/03/06 12:45:35;;;;;;;;;;;;;;;13.59;31.33;101382.66;4966145;28;7230;-71
2022/03/06 12:48:02;;;;;;;;;;;;;;;13.10;31.22;101382.63;4968216;28;6863;-71
2022/03/06 12:50:28;;;;;;;;;;;;;;;12.67;31.49;101383.75;4986050;28;6820;-71
2022/03/06 12:52:56;;;;;;;;;;;;;;;12.36;32.52;101375.22;4990393;28;7235;-71
2022/03/06 12:55:24;;;;;;;;;;;;;;;12.15;32.81;101378.34;4986533;28;7154;-71
2022/03/06 12:57:59;;;;;;;;;;;;;;;12.00;32.79;101373.19;4973381;28;7356;-71